Zephyr, Texas
Current Conditions -  °F | °C
As of 10:35 PM on Monday 20 Oct 2014 (Local Time) from KBWD Reporting Station
Scattered Clouds Scattered Clouds  
Wind Chill: 18°   Ceiling: Unl
Heat Index: 18°   Visibility: 10mi
Dew Point: 14°   Wind: 0mph
Humidity: 77%   Direction: NA
Pressure: 30.07"   Gusts: NA
Location:  31.68°N, 98.79°W
Report Text: KBWD 210335Z AUTO 00000KT 10SM SCT050 18/14 A3007 RMK AO2
Loading
Personal Weather Stations






























Interactive Weather Map
Tropical Storm Tracking
New forecast layout! Learn more

10-Day Weather Forecast

Advertisements
Track Severe Weather on mobile